Berrien Springs, MI

5:39 AM EDT on May 05, 2015 (GMT -0400)
Berrien Springs Public Schools | | Change Station
CLOSE
Current Station
Personal Weather Station
Location: Oronoko Charter Township, MI
Elevation: 669 ft
Nearby Weather Stations

Elev 669 ft 41.95 °N, 86.35 °W | Updated 9 seconds ago

Rain
Rain
57.0 °F
Feels Like 57.0 °F
N
0.0
Wind Variable Wind from SSE
Gusts 0.0 mph

Today
High -- | Low -- °F
--% Chance of Precip.
Yesterday
High -- | Low -- °F
Precip. -- in
6:36 AM 8:48 PM
Full, 98% visible
Pressure 30.19 in
Visibility 10.0 miles
Clouds Scattered Clouds 3300 ft
Scattered Clouds 6500 ft
Dew Point 56 °F
Humidity 97%
Rainfall 0.25 in
Snow Depth Not available.
UV 0 out of 12
Pollen 5.20 out of 12
Air Quality Not available.
Flu Activity Regional
METAR KBEH 050853Z AUTO 00000KT 10SM SCT033 SCT065 13/09 A3019 RMK AO2 SLP224 T01330089 53004

More Conditions Fewer Conditions

Pressure 30.19 in
Visibility 10.0 miles
Clouds Scattered Clouds 3300 ft
Scattered Clouds 6500 ft
Dew Point 56 °F
Humidity 97%
Rainfall 0.25 in
Snow Depth Not available.
UV 0 out of 12
Pollen 5.20 out of 12
Air Quality Not available.
Flu Activity Regional
METAR KBEH 050853Z AUTO 00000KT 10SM SCT033 SCT065 13/09 A3019 RMK AO2 SLP224 T01330089 53004

More Conditions Fewer Conditions

Nepal has a long way to go to dig out and rebuild from a devastating earthquake. We have teamed up with several charities and organizations to make contributing to the relief effort as easy as possible.
How you can help: Portlight Strategies | Red Cross

10-Day Weather Forecast

Almanac

Astronomy

May. 05, 2015 Rise Set
Actual Time
Civil Twilight
Nautical Twilight
Astronomical Twilight
Moon
Length of Visible Light
Length of Day
Tomorrow will be .
, % of the Moon is Illuminated

Today's Extremes

State Highs State Lows

Community

WunderPhotos

Upload Photos

1,818,824 photos uploaded!

WunderBlogs® & News

Nearby

Air Quality

  Air Quality AQ Index Pollutant
Not available.

Snow Depth

Station Depth Elevation

Earthquake Activity

City Distance Mag. Time & Date
Minimum magnitude displayed is 2.5.

Coastal Water Temperatures

Place Temperature

Stations

Nearby Weather Stations

Station Location Temp. Windchill Dew Point Humidity Wind Precip. Elev Updated Type